Lake Bronson, Minnesota
Current Conditions -  °F | °C
As of 7:13 PM on Sunday 23 Nov 2014 (Local Time) from KHCO Reporting Station
Haze Haze  
Wind Chill:   Ceiling: 700
Heat Index: 18°   Visibility: 5mi
Dew Point: 16°   Wind: 21mph
Humidity: 93%   Direction: 330°NNW
Pressure: 29.55"   Gusts: 29mph
Location:  48.74°N, 96.66°W
Report Text: KHCO 240113Z AUTO 33018G25KT 5SM BR BKN007 OVC065 M08/M09 A2955 RMK AO2
Loading
Personal Weather Stations






























Interactive Weather Map New forecast layout! Learn more

10-Day Weather Forecast

Advertisements
Track Severe Weather on mobile